sensor_id;sensor_type;location;lat;lon;timestamp;P1;durP1;ratioP1;P2;durP2;ratioP2
14486;SDS011;7329;50.866;4.366;2022-11-18T00:00:09;5.60;;;3.20;;
14486;SDS011;7329;50.866;4.366;2022-11-18T00:02:14;5.30;;;2.90;;
14486;SDS011;7329;50.866;4.366;2022-11-18T00:04:16;4.38;;;3.28;;
14486;SDS011;7329;50.866;4.366;2022-11-18T00:06:20;5.50;;;2.97;;
14486;SDS011;7329;50.866;4.366;2022-11-18T00:08:24;3.85;;;2.92;;
14486;SDS011;7329;50.866;4.366;2022-11-18T00:10:26;5.07;;;3.35;;
14486;SDS011;7329;50.866;4.366;2022-11-18T00:12:28;5.20;;;2.88;;
14486;SDS011;7329;50.866;4.366;2022-11-18T00:14:54;5.45;;;2.90;;
14486;SDS011;7329;50.866;4.366;2022-11-18T00:16:57;4.47;;;3.10;;
14486;SDS011;7329;50.866;4.366;2022-11-18T00:19:02;5.63;;;3.03;;
14486;SDS011;7329;50.866;4.366;2022-11-18T00:21:05;3.55;;;2.80;;
14486;SDS011;7329;50.866;4.366;2022-11-18T00:23:08;4.50;;;3.13;;
14486;SDS011;7329;50.866;4.366;2022-11-18T00:25:12;3.88;;;2.90;;
14486;SDS011;7329;50.866;4.366;2022-11-18T00:27:14;5.13;;;3.08;;
14486;SDS011;7329;50.866;4.366;2022-11-18T00:29:17;4.53;;;2.88;;
14486;SDS011;7329;50.866;4.366;2022-11-18T00:31:19;4.00;;;2.97;;
14486;SDS011;7329;50.866;4.366;2022-11-18T00:33:21;4.53;;;2.45;;
14486;SDS011;7329;50.866;4.366;2022-11-18T00:35:25;4.22;;;2.83;;
14486;SDS011;7329;50.866;4.366;2022-11-18T00:37:27;5.05;;;3.00;;
14486;SDS011;7329;50.866;4.366;2022-11-18T00:39:30;4.25;;;2.58;;
14486;SDS011;7329;50.866;4.366;2022-11-18T00:41:32;4.65;;;2.92;;
14486;SDS011;7329;50.866;4.366;2022-11-18T00:43:48;3.50;;;2.75;;
14486;SDS011;7329;50.866;4.366;2022-11-18T00:45:51;6.57;;;2.60;;
14486;SDS011;7329;50.866;4.366;2022-11-18T00:47:53;4.90;;;2.83;;
14486;SDS011;7329;50.866;4.366;2022-11-18T00:49:55;3.03;;;2.40;;
14486;SDS011;7329;50.866;4.366;2022-11-18T00:51:59;3.72;;;2.70;;
14486;SDS011;7329;50.866;4.366;2022-11-18T00:54:01;5.43;;;2.97;;
14486;SDS011;7329;50.866;4.366;2022-11-18T00:56:04;4.68;;;2.70;;
14486;SDS011;7329;50.866;4.366;2022-11-18T00:58:07;5.30;;;2.80;;
14486;SDS011;7329;50.866;4.366;2022-11-18T01:00:10;5.80;;;2.95;;
14486;SDS011;7329;50.866;4.366;2022-11-18T01:02:13;4.85;;;2.95;;
14486;SDS011;7329;50.866;4.366;2022-11-18T01:04:15;6.10;;;3.00;;
14486;SDS011;7329;50.866;4.366;2022-11-18T01:06:18;3.55;;;2.45;;
14486;SDS011;7329;50.866;4.366;2022-11-18T01:08:22;4.68;;;3.08;;
14486;SDS011;7329;50.866;4.366;2022-11-18T01:10:25;5.85;;;2.83;;
14486;SDS011;7329;50.866;4.366;2022-11-18T01:12:27;5.35;;;3.05;;
14486;SDS011;7329;50.866;4.366;2022-11-18T01:14:47;4.53;;;2.38;;
14486;SDS011;7329;50.866;4.366;2022-11-18T01:16:52;4.20;;;2.88;;
14486;SDS011;7329;50.866;4.366;2022-11-18T01:18:55;4.28;;;2.58;;
14486;SDS011;7329;50.866;4.366;2022-11-18T01:20:58;4.28;;;2.42;;
14486;SDS011;7329;50.866;4.366;2022-11-18T01:23:01;2.80;;;2.50;;
14486;SDS011;7329;50.866;4.366;2022-11-18T01:25:06;4.13;;;2.58;;
14486;SDS011;7329;50.866;4.366;2022-11-18T01:27:09;4.20;;;2.90;;
14486;SDS011;7329;50.866;4.366;2022-11-18T01:29:11;3.35;;;2.58;;
14486;SDS011;7329;50.866;4.366;2022-11-18T01:31:14;4.07;;;2.60;;
14486;SDS011;7329;50.866;4.366;2022-11-18T01:33:17;6.47;;;2.97;;
14486;SDS011;7329;50.866;4.366;2022-11-18T01:35:20;3.08;;;2.25;;
14486;SDS011;7329;50.866;4.366;2022-11-18T01:37:22;4.03;;;2.67;;
14486;SDS011;7329;50.866;4.366;2022-11-18T01:39:24;4.75;;;2.67;;
14486;SDS011;7329;50.866;4.366;2022-11-18T01:41:28;3.65;;;2.50;;
14486;SDS011;7329;50.866;4.366;2022-11-18T01:43:44;4.00;;;2.58;;
14486;SDS011;7329;50.866;4.366;2022-11-18T01:45:50;3.58;;;2.45;;
14486;SDS011;7329;50.866;4.366;2022-11-18T01:47:55;4.35;;;2.60;;
14486;SDS011;7329;50.866;4.366;2022-11-18T01:50:02;4.03;;;2.67;;
14486;SDS011;7329;50.866;4.366;2022-11-18T01:52:05;2.90;;;2.28;;
14486;SDS011;7329;50.866;4.366;2022-11-18T01:54:10;3.30;;;2.33;;
14486;SDS011;7329;50.866;4.366;2022-11-18T01:56:16;3.72;;;2.22;;
14486;SDS011;7329;50.866;4.366;2022-11-18T01:58:26;5.22;;;2.72;;
14486;SDS011;7329;50.866;4.366;2022-11-18T02:00:31;4.50;;;2.35;;
14486;SDS011;7329;50.866;4.366;2022-11-18T02:02:34;5.10;;;2.67;;
14486;SDS011;7329;50.866;4.366;2022-11-18T02:04:38;4.18;;;2.45;;
14486;SDS011;7329;50.866;4.366;2022-11-18T02:06:42;5.35;;;2.90;;
14486;SDS011;7329;50.866;4.366;2022-11-18T02:08:46;3.65;;;2.38;;
14486;SDS011;7329;50.866;4.366;2022-11-18T02:10:50;2.80;;;1.98;;
14486;SDS011;7329;50.866;4.366;2022-11-18T02:12:53;3.08;;;2.10;;
14486;SDS011;7329;50.866;4.366;2022-11-18T02:14:57;5.05;;;2.20;;
14486;SDS011;7329;50.866;4.366;2022-11-18T02:17:03;3.03;;;2.13;;
14486;SDS011;7329;50.866;4.366;2022-11-18T02:19:15;2.85;;;2.00;;
14486;SDS011;7329;50.866;4.366;2022-11-18T02:21:42;3.42;;;2.17;;
14486;SDS011;7329;50.866;4.366;2022-11-18T02:24:13;3.65;;;2.22;;
14486;SDS011;7329;50.866;4.366;2022-11-18T02:26:51;2.85;;;2.03;;
14486;SDS011;7329;50.866;4.366;2022-11-18T02:29:16;3.10;;;2.10;;
14486;SDS011;7329;50.866;4.366;2022-11-18T02:31:22;3.55;;;2.10;;
14486;SDS011;7329;50.866;4.366;2022-11-18T02:33:30;2.85;;;2.00;;
14486;SDS011;7329;50.866;4.366;2022-11-18T02:35:39;3.97;;;2.38;;
14486;SDS011;7329;50.866;4.366;2022-11-18T02:37:46;3.50;;;2.10;;
14486;SDS011;7329;50.866;4.366;2022-11-18T02:39:51;3.67;;;2.40;;
14486;SDS011;7329;50.866;4.366;2022-11-18T02:41:57;4.07;;;1.98;;
14486;SDS011;7329;50.866;4.366;2022-11-18T02:44:03;5.05;;;2.30;;
14486;SDS011;7329;50.866;4.366;2022-11-18T02:46:12;3.70;;;2.22;;
14486;SDS011;7329;50.866;4.366;2022-11-18T02:48:18;2.90;;;2.10;;
14486;SDS011;7329;50.866;4.366;2022-11-18T02:50:23;2.55;;;1.98;;
14486;SDS011;7329;50.866;4.366;2022-11-18T02:52:27;3.00;;;2.22;;
14486;SDS011;7329;50.866;4.366;2022-11-18T02:54:33;3.13;;;2.08;;
14486;SDS011;7329;50.866;4.366;2022-11-18T02:56:39;3.47;;;2.33;;
14486;SDS011;7329;50.866;4.366;2022-11-18T02:58:42;3.20;;;1.95;;
14486;SDS011;7329;50.866;4.366;2022-11-18T03:00:51;3.75;;;2.28;;
14486;SDS011;7329;50.866;4.366;2022-11-18T03:02:55;3.47;;;1.85;;
14486;SDS011;7329;50.866;4.366;2022-11-18T03:04:58;3.78;;;2.00;;
14486;SDS011;7329;50.866;4.366;2022-11-18T03:07:03;2.13;;;1.73;;
14486;SDS011;7329;50.866;4.366;2022-11-18T03:09:13;3.70;;;2.47;;
14486;SDS011;7329;50.866;4.366;2022-11-18T03:11:21;3.28;;;2.40;;
14486;SDS011;7329;50.866;4.366;2022-11-18T03:13:26;2.85;;;2.30;;
14486;SDS011;7329;50.866;4.366;2022-11-18T03:15:38;4.95;;;2.30;;
14486;SDS011;7329;50.866;4.366;2022-11-18T03:17:51;4.07;;;2.38;;
14486;SDS011;7329;50.866;4.366;2022-11-18T03:20:04;3.20;;;1.63;;
14486;SDS011;7329;50.866;4.366;2022-11-18T03:22:14;3.22;;;2.08;;
14486;SDS011;7329;50.866;4.366;2022-11-18T03:24:20;2.47;;;1.83;;
14486;SDS011;7329;50.866;4.366;2022-11-18T03:26:27;3.13;;;2.00;;
14486;SDS011;7329;50.866;4.366;2022-11-18T03:28:33;2.92;;;2.03;;
14486;SDS011;7329;50.866;4.366;2022-11-18T03:30:40;3.90;;;1.90;;
14486;SDS011;7329;50.866;4.366;2022-11-18T03:32:50;3.25;;;1.98;;
14486;SDS011;7329;50.866;4.366;2022-11-18T03:34:59;3.50;;;2.10;;
14486;SDS011;7329;50.866;4.366;2022-11-18T03:37:05;3.03;;;2.08;;
14486;SDS011;7329;50.866;4.366;2022-11-18T03:39:11;2.60;;;1.83;;
14486;SDS011;7329;50.866;4.366;2022-11-18T03:41:16;2.03;;;1.75;;
14486;SDS011;7329;50.866;4.366;2022-11-18T03:43:21;3.05;;;2.08;;
14486;SDS011;7329;50.866;4.366;2022-11-18T03:45:28;2.83;;;1.73;;
14486;SDS011;7329;50.866;4.366;2022-11-18T03:47:37;2.95;;;1.90;;
14486;SDS011;7329;50.866;4.366;2022-11-18T03:49:44;2.40;;;1.50;;
14486;SDS011;7329;50.866;4.366;2022-11-18T03:51:50;2.47;;;1.77;;
14486;SDS011;7329;50.866;4.366;2022-11-18T03:53:57;3.50;;;2.00;;
14486;SDS011;7329;50.866;4.366;2022-11-18T03:56:07;2.40;;;1.73;;
14486;SDS011;7329;50.866;4.366;2022-11-18T03:58:14;2.50;;;1.70;;
14486;SDS011;7329;50.866;4.366;2022-11-18T04:00:21;2.42;;;1.77;;
14486;SDS011;7329;50.866;4.366;2022-11-18T04:02:24;2.00;;;1.80;;
14486;SDS011;7329;50.866;4.366;2022-11-18T04:04:28;2.67;;;1.70;;
14486;SDS011;7329;50.866;4.366;2022-11-18T04:06:33;2.92;;;1.77;;
14486;SDS011;7329;50.866;4.366;2022-11-18T04:08:41;3.17;;;1.70;;
14486;SDS011;7329;50.866;4.366;2022-11-18T04:10:47;2.53;;;1.83;;
14486;SDS011;7329;50.866;4.366;2022-11-18T04:12:53;3.30;;;1.73;;
14486;SDS011;7329;50.866;4.366;2022-11-18T04:15:03;2.50;;;1.55;;
14486;SDS011;7329;50.866;4.366;2022-11-18T04:17:07;2.60;;;1.60;;
14486;SDS011;7329;50.866;4.366;2022-11-18T04:19:10;3.10;;;1.77;;
14486;SDS011;7329;50.866;4.366;2022-11-18T04:21:12;3.53;;;1.80;;
14486;SDS011;7329;50.866;4.366;2022-11-18T04:23:15;2.05;;;1.80;;
14486;SDS011;7329;50.866;4.366;2022-11-18T04:25:18;2.75;;;1.85;;
14486;SDS011;7329;50.866;4.366;2022-11-18T04:27:21;4.07;;;1.90;;
14486;SDS011;7329;50.866;4.366;2022-11-18T04:29:23;2.05;;;1.58;;
14486;SDS011;7329;50.866;4.366;2022-11-18T04:31:27;2.95;;;1.80;;
14486;SDS011;7329;50.866;4.366;2022-11-18T04:33:29;2.20;;;1.80;;
14486;SDS011;7329;50.866;4.366;2022-11-18T04:35:32;2.17;;;1.55;;
14486;SDS011;7329;50.866;4.366;2022-11-18T04:37:34;2.42;;;1.50;;
14486;SDS011;7329;50.866;4.366;2022-11-18T04:39:37;2.35;;;1.60;;
14486;SDS011;7329;50.866;4.366;2022-11-18T04:41:40;2.03;;;1.60;;
14486;SDS011;7329;50.866;4.366;2022-11-18T04:43:57;2.90;;;1.85;;
14486;SDS011;7329;50.866;4.366;2022-11-18T04:46:00;2.65;;;1.75;;
14486;SDS011;7329;50.866;4.366;2022-11-18T04:48:02;3.58;;;1.77;;
14486;SDS011;7329;50.866;4.366;2022-11-18T04:50:07;2.78;;;1.88;;
14486;SDS011;7329;50.866;4.366;2022-11-18T04:52:10;3.05;;;1.67;;
14486;SDS011;7329;50.866;4.366;2022-11-18T04:54:13;2.47;;;1.67;;
14486;SDS011;7329;50.866;4.366;2022-11-18T04:56:16;3.03;;;1.92;;
14486;SDS011;7329;50.866;4.366;2022-11-18T04:58:19;4.20;;;1.83;;
14486;SDS011;7329;50.866;4.366;2022-11-18T05:00:22;2.60;;;1.73;;
14486;SDS011;7329;50.866;4.366;2022-11-18T05:02:24;2.17;;;1.38;;
14486;SDS011;7329;50.866;4.366;2022-11-18T05:04:27;2.97;;;1.70;;
14486;SDS011;7329;50.866;4.366;2022-11-18T05:06:31;2.70;;;1.67;;
14486;SDS011;7329;50.866;4.366;2022-11-18T05:08:34;2.53;;;1.60;;
14486;SDS011;7329;50.866;4.366;2022-11-18T05:10:37;2.25;;;1.70;;
14486;SDS011;7329;50.866;4.366;2022-11-18T05:12:39;3.20;;;1.85;;
14486;SDS011;7329;50.866;4.366;2022-11-18T05:14:51;3.00;;;1.58;;
14486;SDS011;7329;50.866;4.366;2022-11-18T05:16:53;2.30;;;1.80;;
14486;SDS011;7329;50.866;4.366;2022-11-18T05:18:56;2.97;;;1.55;;
14486;SDS011;7329;50.866;4.366;2022-11-18T05:21:03;2.88;;;1.60;;
14486;SDS011;7329;50.866;4.366;2022-11-18T05:23:06;3.75;;;1.98;;
14486;SDS011;7329;50.866;4.366;2022-11-18T05:25:08;3.33;;;1.70;;
14486;SDS011;7329;50.866;4.366;2022-11-18T05:27:11;2.55;;;1.38;;
14486;SDS011;7329;50.866;4.366;2022-11-18T05:29:14;2.05;;;1.30;;
14486;SDS011;7329;50.866;4.366;2022-11-18T05:31:19;2.13;;;1.45;;
14486;SDS011;7329;50.866;4.366;2022-11-18T05:33:22;1.88;;;1.50;;
14486;SDS011;7329;50.866;4.366;2022-11-18T05:35:24;3.00;;;1.75;;
14486;SDS011;7329;50.866;4.366;2022-11-18T05:37:26;1.95;;;1.52;;
14486;SDS011;7329;50.866;4.366;2022-11-18T05:39:30;2.10;;;1.70;;
14486;SDS011;7329;50.866;4.366;2022-11-18T05:41:33;3.30;;;1.75;;
14486;SDS011;7329;50.866;4.366;2022-11-18T05:43:53;2.83;;;1.63;;
14486;SDS011;7329;50.866;4.366;2022-11-18T05:45:55;3.90;;;1.65;;
14486;SDS011;7329;50.866;4.366;2022-11-18T05:47:59;2.67;;;1.67;;
14486;SDS011;7329;50.866;4.366;2022-11-18T05:50:04;2.10;;;1.52;;
14486;SDS011;7329;50.866;4.366;2022-11-18T05:52:07;2.92;;;1.70;;
14486;SDS011;7329;50.866;4.366;2022-11-18T05:54:09;2.45;;;1.60;;
14486;SDS011;7329;50.866;4.366;2022-11-18T05:56:15;3.22;;;1.60;;
14486;SDS011;7329;50.866;4.366;2022-11-18T05:58:21;1.90;;;1.40;;
14486;SDS011;7329;50.866;4.366;2022-11-18T06:00:23;2.13;;;1.60;;
14486;SDS011;7329;50.866;4.366;2022-11-18T06:02:25;4.15;;;1.70;;
14486;SDS011;7329;50.866;4.366;2022-11-18T06:04:32;2.55;;;1.58;;
14486;SDS011;7329;50.866;4.366;2022-11-18T06:06:39;2.53;;;1.55;;
14486;SDS011;7329;50.866;4.366;2022-11-18T06:08:44;2.58;;;1.48;;
14486;SDS011;7329;50.866;4.366;2022-11-18T06:10:49;2.40;;;1.40;;
14486;SDS011;7329;50.866;4.366;2022-11-18T06:12:55;2.85;;;1.70;;
14486;SDS011;7329;50.866;4.366;2022-11-18T06:14:59;2.83;;;1.33;;
14486;SDS011;7329;50.866;4.366;2022-11-18T06:17:07;3.00;;;1.60;;
14486;SDS011;7329;50.866;4.366;2022-11-18T06:19:12;2.95;;;1.67;;
14486;SDS011;7329;50.866;4.366;2022-11-18T06:21:16;3.60;;;1.60;;
14486;SDS011;7329;50.866;4.366;2022-11-18T06:23:18;3.22;;;1.50;;
14486;SDS011;7329;50.866;4.366;2022-11-18T06:25:21;3.22;;;1.60;;
14486;SDS011;7329;50.866;4.366;2022-11-18T06:27:23;2.47;;;1.30;;
14486;SDS011;7329;50.866;4.366;2022-11-18T06:29:26;2.30;;;1.30;;
14486;SDS011;7329;50.866;4.366;2022-11-18T06:31:29;3.13;;;1.38;;
14486;SDS011;7329;50.866;4.366;2022-11-18T06:33:31;1.67;;;1.45;;
14486;SDS011;7329;50.866;4.366;2022-11-18T06:35:33;3.20;;;1.50;;
14486;SDS011;7329;50.866;4.366;2022-11-18T06:37:37;2.42;;;1.58;;
14486;SDS011;7329;50.866;4.366;2022-11-18T06:39:39;2.67;;;1.73;;
14486;SDS011;7329;50.866;4.366;2022-11-18T06:41:42;2.78;;;1.77;;
14486;SDS011;7329;50.866;4.366;2022-11-18T06:43:44;3.67;;;1.50;;
14486;SDS011;7329;50.866;4.366;2022-11-18T06:45:45;3.20;;;1.55;;
14486;SDS011;7329;50.866;4.366;2022-11-18T06:48:01;3.30;;;1.30;;
14486;SDS011;7329;50.866;4.366;2022-11-18T06:50:04;3.58;;;1.50;;
14486;SDS011;7329;50.866;4.366;2022-11-18T06:52:07;2.38;;;1.30;;
14486;SDS011;7329;50.866;4.366;2022-11-18T06:54:11;3.03;;;1.30;;
14486;SDS011;7329;50.866;4.366;2022-11-18T06:56:14;2.90;;;1.30;;
14486;SDS011;7329;50.866;4.366;2022-11-18T06:58:17;2.75;;;1.45;;
14486;SDS011;7329;50.866;4.366;2022-11-18T07:00:19;2.35;;;1.50;;
14486;SDS011;7329;50.866;4.366;2022-11-18T07:02:22;2.90;;;1.60;;
14486;SDS011;7329;50.866;4.366;2022-11-18T07:04:24;1.92;;;1.38;;
14486;SDS011;7329;50.866;4.366;2022-11-18T07:06:27;2.55;;;1.50;;
14486;SDS011;7329;50.866;4.366;2022-11-18T07:08:32;1.50;;;1.10;;
14486;SDS011;7329;50.866;4.366;2022-11-18T07:10:36;2.45;;;1.20;;
14486;SDS011;7329;50.866;4.366;2022-11-18T07:12:39;3.13;;;1.52;;
14486;SDS011;7329;50.866;4.366;2022-11-18T07:14:41;3.70;;;1.60;;
14486;SDS011;7329;50.866;4.366;2022-11-18T07:16:43;2.63;;;1.40;;
14486;SDS011;7329;50.866;4.366;2022-11-18T07:18:46;2.13;;;1.40;;
14486;SDS011;7329;50.866;4.366;2022-11-18T07:20:50;3.45;;;1.30;;
14486;SDS011;7329;50.866;4.366;2022-11-18T07:22:53;2.22;;;1.40;;
14486;SDS011;7329;50.866;4.366;2022-11-18T07:24:55;2.45;;;1.48;;
14486;SDS011;7329;50.866;4.366;2022-11-18T07:26:59;3.00;;;1.52;;
14486;SDS011;7329;50.866;4.366;2022-11-18T07:29:02;3.53;;;1.60;;
14486;SDS011;7329;50.866;4.366;2022-11-18T07:31:05;2.67;;;1.17;;
14486;SDS011;7329;50.866;4.366;2022-11-18T07:33:09;2.22;;;1.10;;
14486;SDS011;7329;50.866;4.366;2022-11-18T07:35:11;2.92;;;1.38;;
14486;SDS011;7329;50.866;4.366;2022-11-18T07:37:14;1.48;;;1.00;;
14486;SDS011;7329;50.866;4.366;2022-11-18T07:39:16;2.95;;;1.58;;
14486;SDS011;7329;50.866;4.366;2022-11-18T07:41:19;2.70;;;1.20;;
14486;SDS011;7329;50.866;4.366;2022-11-18T07:43:23;3.28;;;1.30;;
14486;SDS011;7329;50.866;4.366;2022-11-18T07:45:26;3.38;;;1.33;;
14486;SDS011;7329;50.866;4.366;2022-11-18T07:47:28;3.20;;;1.50;;
14486;SDS011;7329;50.866;4.366;2022-11-18T07:49:30;3.33;;;1.40;;
14486;SDS011;7329;50.866;4.366;2022-11-18T07:51:33;2.47;;;1.30;;
14486;SDS011;7329;50.866;4.366;2022-11-18T07:53:36;2.25;;;1.30;;
14486;SDS011;7329;50.866;4.366;2022-11-18T07:55:39;2.42;;;1.40;;
14486;SDS011;7329;50.866;4.366;2022-11-18T07:57:41;3.45;;;1.30;;
14486;SDS011;7329;50.866;4.366;2022-11-18T07:59:45;3.42;;;1.48;;
14486;SDS011;7329;50.866;4.366;2022-11-18T08:01:47;4.53;;;1.52;;
14486;SDS011;7329;50.866;4.366;2022-11-18T08:03:49;2.33;;;1.42;;
14486;SDS011;7329;50.866;4.366;2022-11-18T08:05:52;10.35;;;1.98;;
14486;SDS011;7329;50.866;4.366;2022-11-18T08:07:59;5.45;;;1.40;;
14486;SDS011;7329;50.866;4.366;2022-11-18T08:10:01;6.90;;;1.80;;
14486;SDS011;7329;50.866;4.366;2022-11-18T08:12:04;3.83;;;1.58;;
14486;SDS011;7329;50.866;4.366;2022-11-18T08:14:06;4.50;;;1.70;;
14486;SDS011;7329;50.866;4.366;2022-11-18T08:16:12;4.50;;;1.60;;
14486;SDS011;7329;50.866;4.366;2022-11-18T08:18:15;6.28;;;1.45;;
14486;SDS011;7329;50.866;4.366;2022-11-18T08:20:18;4.75;;;1.27;;
14486;SDS011;7329;50.866;4.366;2022-11-18T08:22:20;5.68;;;1.42;;
14486;SDS011;7329;50.866;4.366;2022-11-18T08:24:22;4.60;;;1.70;;
14486;SDS011;7329;50.866;4.366;2022-11-18T08:26:25;3.15;;;1.70;;
14486;SDS011;7329;50.866;4.366;2022-11-18T08:28:27;3.78;;;1.42;;
14486;SDS011;7329;50.866;4.366;2022-11-18T08:30:31;2.85;;;1.45;;
14486;SDS011;7329;50.866;4.366;2022-11-18T08:32:35;3.60;;;1.25;;
14486;SDS011;7329;50.866;4.366;2022-11-18T08:34:37;4.75;;;1.67;;
14486;SDS011;7329;50.866;4.366;2022-11-18T08:36:39;3.53;;;1.40;;
14486;SDS011;7329;50.866;4.366;2022-11-18T08:38:42;4.15;;;1.73;;
14486;SDS011;7329;50.866;4.366;2022-11-18T08:40:45;3.67;;;1.50;;
14486;SDS011;7329;50.866;4.366;2022-11-18T08:42:48;5.70;;;1.88;;
14486;SDS011;7329;50.866;4.366;2022-11-18T08:44:51;4.28;;;1.55;;
14486;SDS011;7329;50.866;4.366;2022-11-18T08:46:53;6.03;;;1.40;;
14486;SDS011;7329;50.866;4.366;2022-11-18T08:48:57;4.82;;;1.70;;
14486;SDS011;7329;50.866;4.366;2022-11-18T08:50:59;5.43;;;1.90;;
14486;SDS011;7329;50.866;4.366;2022-11-18T08:53:02;6.20;;;1.60;;
14486;SDS011;7329;50.866;4.366;2022-11-18T08:55:04;8.27;;;1.98;;
14486;SDS011;7329;50.866;4.366;2022-11-18T08:57:07;6.45;;;1.90;;
14486;SDS011;7329;50.866;4.366;2022-11-18T08:59:09;4.47;;;1.65;;
14486;SDS011;7329;50.866;4.366;2022-11-18T09:01:12;4.35;;;1.83;;
14486;SDS011;7329;50.866;4.366;2022-11-18T09:03:14;9.45;;;1.80;;
14486;SDS011;7329;50.866;4.366;2022-11-18T09:05:18;5.63;;;1.70;;
14486;SDS011;7329;50.866;4.366;2022-11-18T09:07:22;6.18;;;1.80;;
14486;SDS011;7329;50.866;4.366;2022-11-18T09:09:24;6.88;;;2.00;;
14486;SDS011;7329;50.866;4.366;2022-11-18T09:11:26;7.10;;;2.10;;
14486;SDS011;7329;50.866;4.366;2022-11-18T09:13:29;4.43;;;1.88;;
14486;SDS011;7329;50.866;4.366;2022-11-18T09:15:31;7.28;;;2.17;;
14486;SDS011;7329;50.866;4.366;2022-11-18T09:17:33;5.35;;;2.17;;
14486;SDS011;7329;50.866;4.366;2022-11-18T09:19:36;4.90;;;2.10;;
14486;SDS011;7329;50.866;4.366;2022-11-18T09:21:40;5.28;;;2.03;;
14486;SDS011;7329;50.866;4.366;2022-11-18T09:23:42;4.40;;;2.00;;
14486;SDS011;7329;50.866;4.366;2022-11-18T09:25:45;4.88;;;1.80;;
14486;SDS011;7329;50.866;4.366;2022-11-18T09:27:47;7.68;;;1.90;;
14486;SDS011;7329;50.866;4.366;2022-11-18T09:29:52;5.00;;;1.45;;
14486;SDS011;7329;50.866;4.366;2022-11-18T09:31:54;6.03;;;1.95;;
14486;SDS011;7329;50.866;4.366;2022-11-18T09:33:57;7.72;;;1.77;;
14486;SDS011;7329;50.866;4.366;2022-11-18T09:36:00;3.38;;;1.60;;
14486;SDS011;7329;50.866;4.366;2022-11-18T09:38:03;5.50;;;1.42;;
14486;SDS011;7329;50.866;4.366;2022-11-18T09:40:06;3.78;;;1.75;;
14486;SDS011;7329;50.866;4.366;2022-11-18T09:42:23;4.03;;;1.40;;
14486;SDS011;7329;50.866;4.366;2022-11-18T09:44:42;4.93;;;1.30;;
14486;SDS011;7329;50.866;4.366;2022-11-18T09:46:53;6.32;;;1.45;;
14486;SDS011;7329;50.866;4.366;2022-11-18T09:49:07;6.15;;;1.80;;
14486;SDS011;7329;50.866;4.366;2022-11-18T09:51:15;5.95;;;1.50;;
14486;SDS011;7329;50.866;4.366;2022-11-18T09:53:19;3.40;;;1.73;;
14486;SDS011;7329;50.866;4.366;2022-11-18T09:55:23;4.82;;;1.58;;
14486;SDS011;7329;50.866;4.366;2022-11-18T09:57:28;7.38;;;1.75;;
14486;SDS011;7329;50.866;4.366;2022-11-18T09:59:38;3.25;;;1.30;;
14486;SDS011;7329;50.866;4.366;2022-11-18T10:01:41;3.53;;;1.25;;
14486;SDS011;7329;50.866;4.366;2022-11-18T10:03:44;10.43;;;1.65;;
14486;SDS011;7329;50.866;4.366;2022-11-18T10:05:47;5.85;;;1.70;;
14486;SDS011;7329;50.866;4.366;2022-11-18T10:07:55;6.45;;;1.50;;
14486;SDS011;7329;50.866;4.366;2022-11-18T10:10:10;4.50;;;1.52;;
14486;SDS011;7329;50.866;4.366;2022-11-18T10:12:20;3.63;;;1.30;;
14486;SDS011;7329;50.866;4.366;2022-11-18T10:14:31;6.20;;;1.55;;
14486;SDS011;7329;50.866;4.366;2022-11-18T10:16:46;3.50;;;1.20;;
14486;SDS011;7329;50.866;4.366;2022-11-18T10:18:57;4.78;;;1.90;;
14486;SDS011;7329;50.866;4.366;2022-11-18T10:21:06;4.00;;;1.30;;
14486;SDS011;7329;50.866;4.366;2022-11-18T10:23:20;4.88;;;1.50;;
14486;SDS011;7329;50.866;4.366;2022-11-18T10:25:26;6.05;;;1.60;;
14486;SDS011;7329;50.866;4.366;2022-11-18T10:27:32;5.45;;;1.60;;
14486;SDS011;7329;50.866;4.366;2022-11-18T10:29:38;2.65;;;1.33;;
14486;SDS011;7329;50.866;4.366;2022-11-18T10:31:51;3.03;;;1.45;;
14486;SDS011;7329;50.866;4.366;2022-11-18T10:34:03;3.17;;;1.45;;
14486;SDS011;7329;50.866;4.366;2022-11-18T10:36:10;2.47;;;1.30;;
14486;SDS011;7329;50.866;4.366;2022-11-18T10:38:20;4.15;;;1.40;;
14486;SDS011;7329;50.866;4.366;2022-11-18T10:40:23;2.83;;;1.08;;
14486;SDS011;7329;50.866;4.366;2022-11-18T10:42:29;5.10;;;1.27;;
14486;SDS011;7329;50.866;4.366;2022-11-18T10:44:37;3.13;;;1.30;;
14486;SDS011;7329;50.866;4.366;2022-11-18T10:46:40;5.68;;;1.40;;
14486;SDS011;7329;50.866;4.366;2022-11-18T10:48:42;4.38;;;1.42;;
14486;SDS011;7329;50.866;4.366;2022-11-18T10:50:45;3.65;;;1.35;;
14486;SDS011;7329;50.866;4.366;2022-11-18T10:52:50;2.33;;;1.30;;
14486;SDS011;7329;50.866;4.366;2022-11-18T10:55:07;3.95;;;1.38;;
14486;SDS011;7329;50.866;4.366;2022-11-18T10:57:29;3.33;;;1.17;;
14486;SDS011;7329;50.866;4.366;2022-11-18T10:59:38;3.67;;;1.30;;
14486;SDS011;7329;50.866;4.366;2022-11-18T11:01:42;3.10;;;1.20;;
14486;SDS011;7329;50.866;4.366;2022-11-18T11:20:24;3.38;;;1.40;;
14486;SDS011;7329;50.866;4.366;2022-11-18T11:22:27;5.15;;;1.30;;
14486;SDS011;7329;50.866;4.366;2022-11-18T11:24:30;3.78;;;1.40;;
14486;SDS011;7329;50.866;4.366;2022-11-18T11:26:33;6.43;;;1.60;;
14486;SDS011;7329;50.866;4.366;2022-11-18T11:28:44;5.75;;;2.03;;
14486;SDS011;7329;50.866;4.366;2022-11-18T11:30:57;4.32;;;1.35;;
14486;SDS011;7329;50.866;4.366;2022-11-18T11:33:25;2.80;;;1.35;;
14486;SDS011;7329;50.866;4.366;2022-11-18T11:35:35;5.72;;;1.35;;
14486;SDS011;7329;50.866;4.366;2022-11-18T11:37:49;6.40;;;1.88;;
14486;SDS011;7329;50.866;4.366;2022-11-18T11:40:11;4.03;;;1.30;;
14486;SDS011;7329;50.866;4.366;2022-11-18T11:42:28;2.30;;;1.40;;
14486;SDS011;7329;50.866;4.366;2022-11-18T11:44:40;5.07;;;1.58;;
14486;SDS011;7329;50.866;4.366;2022-11-18T11:46:54;4.95;;;1.52;;
14486;SDS011;7329;50.866;4.366;2022-11-18T11:49:22;5.78;;;1.33;;
14486;SDS011;7329;50.866;4.366;2022-11-18T11:51:33;5.68;;;1.55;;
14486;SDS011;7329;50.866;4.366;2022-11-18T11:53:45;2.75;;;1.30;;
14486;SDS011;7329;50.866;4.366;2022-11-18T11:56:00;5.78;;;1.30;;
14486;SDS011;7329;50.866;4.366;2022-11-18T11:58:15;10.35;;;1.70;;
14486;SDS011;7329;50.866;4.366;2022-11-18T12:00:29;5.40;;;1.60;;
14486;SDS011;7329;50.866;4.366;2022-11-18T12:02:39;5.80;;;1.60;;
14486;SDS011;7329;50.866;4.366;2022-11-18T12:05:02;5.68;;;1.50;;
14486;SDS011;7329;50.866;4.366;2022-11-18T12:07:18;6.25;;;1.85;;
14486;SDS011;7329;50.866;4.366;2022-11-18T12:09:25;7.32;;;1.70;;
14486;SDS011;7329;50.866;4.366;2022-11-18T12:11:39;4.22;;;1.77;;
14486;SDS011;7329;50.866;4.366;2022-11-18T12:13:47;3.28;;;1.50;;
14486;SDS011;7329;50.866;4.366;2022-11-18T12:18:30;3.17;;;1.52;;
14486;SDS011;7329;50.866;4.366;2022-11-18T12:20:40;6.47;;;1.63;;
14486;SDS011;7329;50.866;4.366;2022-11-18T12:27:56;6.80;;;1.60;;
14486;SDS011;7329;50.866;4.366;2022-11-18T12:30:00;6.65;;;1.65;;
14486;SDS011;7329;50.866;4.366;2022-11-18T12:32:04;2.95;;;1.55;;
14486;SDS011;7329;50.866;4.366;2022-11-18T12:34:30;7.88;;;2.00;;
14486;SDS011;7329;50.866;4.366;2022-11-18T12:36:38;6.68;;;2.15;;
14486;SDS011;7329;50.866;4.366;2022-11-18T12:38:43;3.38;;;1.67;;
14486;SDS011;7329;50.866;4.366;2022-11-18T12:40:45;3.53;;;1.70;;
14486;SDS011;7329;50.866;4.366;2022-11-18T12:42:48;4.35;;;2.28;;
14486;SDS011;7329;50.866;4.366;2022-11-18T12:47:57;5.25;;;1.90;;
14486;SDS011;7329;50.866;4.366;2022-11-18T12:50:09;3.15;;;1.60;;
14486;SDS011;7329;50.866;4.366;2022-11-18T12:54:50;5.15;;;1.90;;
14486;SDS011;7329;50.866;4.366;2022-11-18T12:56:53;5.32;;;1.60;;
14486;SDS011;7329;50.866;4.366;2022-11-18T12:58:57;6.90;;;1.63;;
14486;SDS011;7329;50.866;4.366;2022-11-18T13:01:04;4.47;;;1.70;;
14486;SDS011;7329;50.866;4.366;2022-11-18T13:03:08;3.10;;;1.33;;
14486;SDS011;7329;50.866;4.366;2022-11-18T13:05:11;7.78;;;1.77;;
14486;SDS011;7329;50.866;4.366;2022-11-18T13:07:20;8.73;;;1.67;;
14486;SDS011;7329;50.866;4.366;2022-11-18T13:09:40;6.22;;;1.65;;
14486;SDS011;7329;50.866;4.366;2022-11-18T13:11:45;3.40;;;1.58;;
14486;SDS011;7329;50.866;4.366;2022-11-18T13:13:51;3.33;;;1.55;;
14486;SDS011;7329;50.866;4.366;2022-11-18T13:16:16;4.32;;;1.58;;
14486;SDS011;7329;50.866;4.366;2022-11-18T13:18:48;4.32;;;1.48;;